Terminal Aerodrome Forecast
Issued by NWS

Home | Current Version | Previous Version | Text Only | Print | Product List | Glossary On
Versions: 1 2 3 4 5 6 7 8 9 10 11 12 13 14
648
FTUS44 KLIX 032348
TAFMSY
TAF
KMSY 032348Z 0400/0424 10014G22KT P6SM -RA OVC025
      TEMPO 0403/0407 4SM -RA OVC015
     FM040700 12009KT P6SM -RA OVC008
     FM040900 13007KT 5SM -RA OVC006
      TEMPO 0409/0413 2SM +SHRA
     FM041300 16006KT 3SM SHRA OVC015
     FM042200 25007KT 5SM -SHRA OVC015=

USA.gov is the U.S. government's official web portal to all federal, state and local government web resources and services.